Search METAR Data

METAR Data for ENBV:

ENBV 241450Z 14006KT CAVOK 04/01 Q1016